sensor_id;sensor_type;location;lat;lon;timestamp;temperature;humidity
78514;SHT31;67814;51.976;5.810;2024-01-11T00:01:19;-0.4;49.7
78514;SHT31;67814;51.976;5.810;2024-01-11T00:03:47;-0.4;49.6
78514;SHT31;67814;51.976;5.810;2024-01-11T00:06:16;-0.4;49.7
78514;SHT31;67814;51.976;5.810;2024-01-11T00:08:45;-0.4;49.3
78514;SHT31;67814;51.976;5.810;2024-01-11T00:11:15;-0.4;49.4
78514;SHT31;67814;51.976;5.810;2024-01-11T00:13:44;-0.4;49.0
78514;SHT31;67814;51.976;5.810;2024-01-11T00:16:12;-0.4;49.1
78514;SHT31;67814;51.976;5.810;2024-01-11T00:18:41;-0.4;48.9
78514;SHT31;67814;51.976;5.810;2024-01-11T00:21:11;-0.4;48.9
78514;SHT31;67814;51.976;5.810;2024-01-11T00:23:39;-0.5;48.9
78514;SHT31;67814;51.976;5.810;2024-01-11T00:26:10;-0.5;49.0
78514;SHT31;67814;51.976;5.810;2024-01-11T00:28:40;-0.5;49.7
78514;SHT31;67814;51.976;5.810;2024-01-11T00:31:08;-0.5;49.2
78514;SHT31;67814;51.976;5.810;2024-01-11T00:33:37;-0.6;49.8
78514;SHT31;67814;51.976;5.810;2024-01-11T00:36:06;-0.6;50.2
78514;SHT31;67814;51.976;5.810;2024-01-11T00:38:35;-0.6;50.3
78514;SHT31;67814;51.976;5.810;2024-01-11T00:41:03;-0.6;50.4
78514;SHT31;67814;51.976;5.810;2024-01-11T00:43:32;-0.7;50.0
78514;SHT31;67814;51.976;5.810;2024-01-11T00:46:00;-0.7;49.7
78514;SHT31;67814;51.976;5.810;2024-01-11T00:48:29;-0.8;49.9
78514;SHT31;67814;51.976;5.810;2024-01-11T00:50:57;-0.8;50.4
78514;SHT31;67814;51.976;5.810;2024-01-11T00:53:26;-0.9;50.8
78514;SHT31;67814;51.976;5.810;2024-01-11T00:55:56;-1.0;50.7
78514;SHT31;67814;51.976;5.810;2024-01-11T00:58:25;-1.0;50.7
78514;SHT31;67814;51.976;5.810;2024-01-11T01:00:54;-1.0;50.8
78514;SHT31;67814;51.976;5.810;2024-01-11T01:03:23;-1.1;51.0
78514;SHT31;67814;51.976;5.810;2024-01-11T01:05:51;-1.1;51.2
78514;SHT31;67814;51.976;5.810;2024-01-11T01:08:22;-1.1;51.2
78514;SHT31;67814;51.976;5.810;2024-01-11T01:10:50;-1.2;51.3
78514;SHT31;67814;51.976;5.810;2024-01-11T01:13:19;-1.2;51.6
78514;SHT31;67814;51.976;5.810;2024-01-11T01:15:48;-1.2;52.1
78514;SHT31;67814;51.976;5.810;2024-01-11T01:18:18;-1.2;52.0
78514;SHT31;67814;51.976;5.810;2024-01-11T01:20:47;-1.2;52.1
78514;SHT31;67814;51.976;5.810;2024-01-11T01:23:15;-1.2;52.0
78514;SHT31;67814;51.976;5.810;2024-01-11T01:25:44;-1.2;52.0
78514;SHT31;67814;51.976;5.810;2024-01-11T01:28:13;-1.2;52.1
78514;SHT31;67814;51.976;5.810;2024-01-11T01:30:42;-1.3;52.0
78514;SHT31;67814;51.976;5.810;2024-01-11T01:33:10;-1.3;52.2
78514;SHT31;67814;51.976;5.810;2024-01-11T01:35:39;-1.3;52.2
78514;SHT31;67814;51.976;5.810;2024-01-11T01:38:07;-1.3;52.0
78514;SHT31;67814;51.976;5.810;2024-01-11T01:40:37;-1.3;52.4
78514;SHT31;67814;51.976;5.810;2024-01-11T01:43:07;-1.3;52.3
78514;SHT31;67814;51.976;5.810;2024-01-11T01:45:36;-1.3;52.8
78514;SHT31;67814;51.976;5.810;2024-01-11T01:48:05;-1.3;52.6
78514;SHT31;67814;51.976;5.810;2024-01-11T01:50:34;-1.4;53.1
78514;SHT31;67814;51.976;5.810;2024-01-11T01:53:03;-1.4;53.5
78514;SHT31;67814;51.976;5.810;2024-01-11T01:55:32;-1.4;53.0
78514;SHT31;67814;51.976;5.810;2024-01-11T01:58:03;-1.4;53.6
78514;SHT31;67814;51.976;5.810;2024-01-11T02:00:32;-1.4;53.3
78514;SHT31;67814;51.976;5.810;2024-01-11T02:03:01;-1.4;53.3
78514;SHT31;67814;51.976;5.810;2024-01-11T02:05:30;-1.4;53.6
78514;SHT31;67814;51.976;5.810;2024-01-11T02:08:01;-1.5;53.5
78514;SHT31;67814;51.976;5.810;2024-01-11T02:10:33;-1.5;53.8
78514;SHT31;67814;51.976;5.810;2024-01-11T02:13:06;-1.5;53.8
78514;SHT31;67814;51.976;5.810;2024-01-11T02:15:34;-1.5;54.0
78514;SHT31;67814;51.976;5.810;2024-01-11T02:18:04;-1.5;54.3
78514;SHT31;67814;51.976;5.810;2024-01-11T02:20:32;-1.6;54.0
78514;SHT31;67814;51.976;5.810;2024-01-11T02:23:06;-1.6;54.2
78514;SHT31;67814;51.976;5.810;2024-01-11T02:25:36;-1.6;54.5
78514;SHT31;67814;51.976;5.810;2024-01-11T02:28:07;-1.7;54.3
78514;SHT31;67814;51.976;5.810;2024-01-11T02:30:37;-1.7;54.5
78514;SHT31;67814;51.976;5.810;2024-01-11T02:33:07;-1.8;54.6
78514;SHT31;67814;51.976;5.810;2024-01-11T02:35:38;-1.8;54.7
78514;SHT31;67814;51.976;5.810;2024-01-11T02:38:11;-1.9;55.2
78514;SHT31;67814;51.976;5.810;2024-01-11T02:40:40;-1.9;55.1
78514;SHT31;67814;51.976;5.810;2024-01-11T02:43:09;-1.9;55.3
78514;SHT31;67814;51.976;5.810;2024-01-11T02:45:38;-1.9;55.4
78514;SHT31;67814;51.976;5.810;2024-01-11T02:48:07;-2.0;55.5
78514;SHT31;67814;51.976;5.810;2024-01-11T02:50:35;-2.0;55.5
78514;SHT31;67814;51.976;5.810;2024-01-11T02:53:04;-2.0;55.5
78514;SHT31;67814;51.976;5.810;2024-01-11T02:55:33;-2.0;55.9
78514;SHT31;67814;51.976;5.810;2024-01-11T02:58:01;-2.0;56.1
78514;SHT31;67814;51.976;5.810;2024-01-11T03:00:30;-2.0;56.3
78514;SHT31;67814;51.976;5.810;2024-01-11T03:02:58;-2.0;56.1
78514;SHT31;67814;51.976;5.810;2024-01-11T03:05:27;-1.9;56.4
78514;SHT31;67814;51.976;5.810;2024-01-11T03:07:56;-1.9;55.9
78514;SHT31;67814;51.976;5.810;2024-01-11T03:10:24;-1.9;55.7
78514;SHT31;67814;51.976;5.810;2024-01-11T03:12:53;-1.9;56.4
78514;SHT31;67814;51.976;5.810;2024-01-11T03:15:21;-1.9;56.1
78514;SHT31;67814;51.976;5.810;2024-01-11T03:17:52;-1.9;56.1
78514;SHT31;67814;51.976;5.810;2024-01-11T03:20:20;-1.9;56.1
78514;SHT31;67814;51.976;5.810;2024-01-11T03:22:51;-1.9;56.2
78514;SHT31;67814;51.976;5.810;2024-01-11T03:25:19;-1.9;56.3
78514;SHT31;67814;51.976;5.810;2024-01-11T03:27:50;-1.9;56.2
78514;SHT31;67814;51.976;5.810;2024-01-11T03:30:19;-1.9;56.0
78514;SHT31;67814;51.976;5.810;2024-01-11T03:32:47;-2.0;56.4
78514;SHT31;67814;51.976;5.810;2024-01-11T03:35:17;-2.0;56.5
78514;SHT31;67814;51.976;5.810;2024-01-11T03:37:46;-2.1;56.9
78514;SHT31;67814;51.976;5.810;2024-01-11T03:40:14;-2.1;57.0
78514;SHT31;67814;51.976;5.810;2024-01-11T03:42:43;-2.2;57.1
78514;SHT31;67814;51.976;5.810;2024-01-11T03:45:12;-2.2;57.4
78514;SHT31;67814;51.976;5.810;2024-01-11T03:47:42;-2.3;57.6
78514;SHT31;67814;51.976;5.810;2024-01-11T03:50:13;-2.3;58.3
78514;SHT31;67814;51.976;5.810;2024-01-11T03:52:42;-2.4;58.1
78514;SHT31;67814;51.976;5.810;2024-01-11T03:55:13;-2.4;58.3
78514;SHT31;67814;51.976;5.810;2024-01-11T03:57:41;-2.4;58.3
78514;SHT31;67814;51.976;5.810;2024-01-11T04:00:11;-2.3;58.2
78514;SHT31;67814;51.976;5.810;2024-01-11T04:02:40;-2.3;58.4
78514;SHT31;67814;51.976;5.810;2024-01-11T04:05:09;-2.3;58.2
78514;SHT31;67814;51.976;5.810;2024-01-11T04:07:37;-2.3;57.7
78514;SHT31;67814;51.976;5.810;2024-01-11T04:10:07;-2.3;57.7
78514;SHT31;67814;51.976;5.810;2024-01-11T04:12:37;-2.3;57.8
78514;SHT31;67814;51.976;5.810;2024-01-11T04:15:06;-2.4;58.0
78514;SHT31;67814;51.976;5.810;2024-01-11T04:17:35;-2.4;58.3
78514;SHT31;67814;51.976;5.810;2024-01-11T04:20:04;-2.4;58.3
78514;SHT31;67814;51.976;5.810;2024-01-11T04:22:33;-2.4;58.4
78514;SHT31;67814;51.976;5.810;2024-01-11T04:25:01;-2.5;58.7
78514;SHT31;67814;51.976;5.810;2024-01-11T04:27:30;-2.4;58.3
78514;SHT31;67814;51.976;5.810;2024-01-11T04:29:58;-2.5;58.4
78514;SHT31;67814;51.976;5.810;2024-01-11T04:32:27;-2.5;58.6
78514;SHT31;67814;51.976;5.810;2024-01-11T04:34:55;-2.5;58.8
78514;SHT31;67814;51.976;5.810;2024-01-11T04:37:24;-2.6;59.4
78514;SHT31;67814;51.976;5.810;2024-01-11T04:39:53;-2.6;59.6
78514;SHT31;67814;51.976;5.810;2024-01-11T04:42:21;-2.7;59.9
78514;SHT31;67814;51.976;5.810;2024-01-11T04:44:50;-2.7;60.1
78514;SHT31;67814;51.976;5.810;2024-01-11T04:47:18;-2.8;60.3
78514;SHT31;67814;51.976;5.810;2024-01-11T04:49:47;-2.8;60.6
78514;SHT31;67814;51.976;5.810;2024-01-11T04:52:15;-2.9;61.0
78514;SHT31;67814;51.976;5.810;2024-01-11T04:54:44;-2.9;61.1
78514;SHT31;67814;51.976;5.810;2024-01-11T04:57:12;-2.9;61.3
78514;SHT31;67814;51.976;5.810;2024-01-11T04:59:41;-2.9;61.5
78514;SHT31;67814;51.976;5.810;2024-01-11T05:02:09;-2.9;61.6
78514;SHT31;67814;51.976;5.810;2024-01-11T05:04:38;-2.9;61.4
78514;SHT31;67814;51.976;5.810;2024-01-11T05:07:09;-2.9;61.4
78514;SHT31;67814;51.976;5.810;2024-01-11T05:09:37;-2.8;61.2
78514;SHT31;67814;51.976;5.810;2024-01-11T05:12:06;-2.8;61.2
78514;SHT31;67814;51.976;5.810;2024-01-11T05:14:35;-2.8;61.0
78514;SHT31;67814;51.976;5.810;2024-01-11T05:17:04;-2.8;60.9
78514;SHT31;67814;51.976;5.810;2024-01-11T05:19:32;-2.7;60.8
78514;SHT31;67814;51.976;5.810;2024-01-11T05:22:01;-2.7;60.9
78514;SHT31;67814;51.976;5.810;2024-01-11T05:24:29;-2.7;60.7
78514;SHT31;67814;51.976;5.810;2024-01-11T05:26:58;-2.7;60.5
78514;SHT31;67814;51.976;5.810;2024-01-11T05:29:27;-2.6;60.3
78514;SHT31;67814;51.976;5.810;2024-01-11T05:31:55;-2.6;60.5
78514;SHT31;67814;51.976;5.810;2024-01-11T05:34:24;-2.6;60.4
78514;SHT31;67814;51.976;5.810;2024-01-11T05:36:52;-2.6;60.4
78514;SHT31;67814;51.976;5.810;2024-01-11T05:39:21;-2.6;60.5
78514;SHT31;67814;51.976;5.810;2024-01-11T05:41:50;-2.6;60.5
78514;SHT31;67814;51.976;5.810;2024-01-11T05:44:18;-2.7;60.5
78514;SHT31;67814;51.976;5.810;2024-01-11T05:46:47;-2.7;60.6
78514;SHT31;67814;51.976;5.810;2024-01-11T05:49:15;-2.6;60.6
78514;SHT31;67814;51.976;5.810;2024-01-11T05:51:44;-2.6;60.6
78514;SHT31;67814;51.976;5.810;2024-01-11T05:54:12;-2.6;60.3
78514;SHT31;67814;51.976;5.810;2024-01-11T05:56:43;-2.6;60.5
78514;SHT31;67814;51.976;5.810;2024-01-11T05:59:11;-2.6;60.3
78514;SHT31;67814;51.976;5.810;2024-01-11T06:01:42;-2.6;60.5
78514;SHT31;67814;51.976;5.810;2024-01-11T06:04:11;-2.6;60.3
78514;SHT31;67814;51.976;5.810;2024-01-11T06:06:40;-2.6;60.2
78514;SHT31;67814;51.976;5.810;2024-01-11T06:09:08;-2.6;60.0
78514;SHT31;67814;51.976;5.810;2024-01-11T06:11:38;-2.6;59.7
78514;SHT31;67814;51.976;5.810;2024-01-11T06:14:06;-2.6;60.1
78514;SHT31;67814;51.976;5.810;2024-01-11T06:16:35;-2.6;60.1
78514;SHT31;67814;51.976;5.810;2024-01-11T06:19:04;-2.6;60.2
78514;SHT31;67814;51.976;5.810;2024-01-11T06:21:33;-2.6;60.2
78514;SHT31;67814;51.976;5.810;2024-01-11T06:24:02;-2.6;60.2
78514;SHT31;67814;51.976;5.810;2024-01-11T06:26:31;-2.6;59.8
78514;SHT31;67814;51.976;5.810;2024-01-11T06:29:00;-2.6;59.9
78514;SHT31;67814;51.976;5.810;2024-01-11T06:31:28;-2.7;60.9
78514;SHT31;67814;51.976;5.810;2024-01-11T06:33:57;-2.7;61.0
78514;SHT31;67814;51.976;5.810;2024-01-11T06:36:25;-2.7;61.5
78514;SHT31;67814;51.976;5.810;2024-01-11T06:38:54;-2.8;61.6
78514;SHT31;67814;51.976;5.810;2024-01-11T06:41:23;-2.8;61.9
78514;SHT31;67814;51.976;5.810;2024-01-11T06:43:51;-2.8;62.1
78514;SHT31;67814;51.976;5.810;2024-01-11T06:46:21;-2.8;62.1
78514;SHT31;67814;51.976;5.810;2024-01-11T06:48:52;-2.8;62.1
78514;SHT31;67814;51.976;5.810;2024-01-11T06:51:23;-2.8;62.0
78514;SHT31;67814;51.976;5.810;2024-01-11T06:53:52;-2.8;62.1
78514;SHT31;67814;51.976;5.810;2024-01-11T06:56:20;-2.7;62.0
78514;SHT31;67814;51.976;5.810;2024-01-11T06:58:49;-2.7;62.0
78514;SHT31;67814;51.976;5.810;2024-01-11T07:01:17;-2.7;61.6
78514;SHT31;67814;51.976;5.810;2024-01-11T07:03:46;-2.7;61.4
78514;SHT31;67814;51.976;5.810;2024-01-11T07:06:14;-2.6;61.2
78514;SHT31;67814;51.976;5.810;2024-01-11T07:08:43;-2.6;61.2
78514;SHT31;67814;51.976;5.810;2024-01-11T07:11:14;-2.6;61.1
78514;SHT31;67814;51.976;5.810;2024-01-11T07:13:42;-2.6;61.1
78514;SHT31;67814;51.976;5.810;2024-01-11T07:16:11;-2.6;61.3
78514;SHT31;67814;51.976;5.810;2024-01-11T07:18:40;-2.6;61.2
78514;SHT31;67814;51.976;5.810;2024-01-11T07:21:08;-2.6;61.0
78514;SHT31;67814;51.976;5.810;2024-01-11T07:23:37;-2.6;61.0
78514;SHT31;67814;51.976;5.810;2024-01-11T07:26:06;-2.6;61.2
78514;SHT31;67814;51.976;5.810;2024-01-11T07:28:34;-2.6;61.1
78514;SHT31;67814;51.976;5.810;2024-01-11T07:31:03;-2.5;60.8
78514;SHT31;67814;51.976;5.810;2024-01-11T07:33:32;-2.5;60.4
78514;SHT31;67814;51.976;5.810;2024-01-11T07:36:00;-2.5;60.4
78514;SHT31;67814;51.976;5.810;2024-01-11T07:38:29;-2.5;60.8
78514;SHT31;67814;51.976;5.810;2024-01-11T07:40:58;-2.4;60.9
78514;SHT31;67814;51.976;5.810;2024-01-11T07:43:26;-2.4;60.5
78514;SHT31;67814;51.976;5.810;2024-01-11T07:45:55;-2.4;60.0
78514;SHT31;67814;51.976;5.810;2024-01-11T07:48:23;-2.4;59.6
78514;SHT31;67814;51.976;5.810;2024-01-11T07:50:54;-2.4;59.9
78514;SHT31;67814;51.976;5.810;2024-01-11T07:53:23;-2.4;59.9
78514;SHT31;67814;51.976;5.810;2024-01-11T07:55:52;-2.4;59.7
78514;SHT31;67814;51.976;5.810;2024-01-11T07:58:21;-2.3;60.0
78514;SHT31;67814;51.976;5.810;2024-01-11T08:00:49;-2.3;60.0
78514;SHT31;67814;51.976;5.810;2024-01-11T08:03:20;-2.3;60.1
78514;SHT31;67814;51.976;5.810;2024-01-11T08:05:49;-2.3;60.4
78514;SHT31;67814;51.976;5.810;2024-01-11T08:08:18;-2.4;60.2
78514;SHT31;67814;51.976;5.810;2024-01-11T08:10:46;-2.4;60.3
78514;SHT31;67814;51.976;5.810;2024-01-11T08:13:16;-2.5;60.6
78514;SHT31;67814;51.976;5.810;2024-01-11T08:15:45;-2.5;60.4
78514;SHT31;67814;51.976;5.810;2024-01-11T08:18:13;-2.5;60.8
78514;SHT31;67814;51.976;5.810;2024-01-11T08:20:42;-2.5;60.9
78514;SHT31;67814;51.976;5.810;2024-01-11T08:23:10;-2.5;61.2
78514;SHT31;67814;51.976;5.810;2024-01-11T08:25:39;-2.5;61.3
78514;SHT31;67814;51.976;5.810;2024-01-11T08:28:10;-2.5;61.4
78514;SHT31;67814;51.976;5.810;2024-01-11T08:30:38;-2.5;61.3
78514;SHT31;67814;51.976;5.810;2024-01-11T08:33:09;-2.5;61.7
78514;SHT31;67814;51.976;5.810;2024-01-11T08:35:37;-2.5;61.4
78514;SHT31;67814;51.976;5.810;2024-01-11T08:38:07;-2.5;61.3
78514;SHT31;67814;51.976;5.810;2024-01-11T08:40:35;-2.4;61.3
78514;SHT31;67814;51.976;5.810;2024-01-11T08:43:05;-2.4;61.4
78514;SHT31;67814;51.976;5.810;2024-01-11T08:45:33;-2.4;61.8
78514;SHT31;67814;51.976;5.810;2024-01-11T08:48:02;-2.4;61.7
78514;SHT31;67814;51.976;5.810;2024-01-11T08:50:31;-2.3;61.5
78514;SHT31;67814;51.976;5.810;2024-01-11T08:53:00;-2.3;61.1
78514;SHT31;67814;51.976;5.810;2024-01-11T08:55:29;-2.3;61.5
78514;SHT31;67814;51.976;5.810;2024-01-11T08:57:59;-2.2;61.6
78514;SHT31;67814;51.976;5.810;2024-01-11T09:00:28;-2.2;61.4
78514;SHT31;67814;51.976;5.810;2024-01-11T09:02:56;-2.1;60.9
78514;SHT31;67814;51.976;5.810;2024-01-11T09:05:26;-2.1;60.9
78514;SHT31;67814;51.976;5.810;2024-01-11T09:07:54;-2.0;60.9
78514;SHT31;67814;51.976;5.810;2024-01-11T09:10:23;-2.0;60.7
78514;SHT31;67814;51.976;5.810;2024-01-11T09:12:52;-1.9;59.9
78514;SHT31;67814;51.976;5.810;2024-01-11T09:15:21;-1.9;60.2
78514;SHT31;67814;51.976;5.810;2024-01-11T09:17:49;-1.9;59.8
78514;SHT31;67814;51.976;5.810;2024-01-11T09:20:18;-1.8;59.7
78514;SHT31;67814;51.976;5.810;2024-01-11T09:22:47;-1.8;59.7
78514;SHT31;67814;51.976;5.810;2024-01-11T09:25:15;-1.8;59.5
78514;SHT31;67814;51.976;5.810;2024-01-11T09:27:44;-1.7;59.2
78514;SHT31;67814;51.976;5.810;2024-01-11T09:30:13;-1.7;59.0
78514;SHT31;67814;51.976;5.810;2024-01-11T09:32:42;-1.6;59.1
78514;SHT31;67814;51.976;5.810;2024-01-11T09:35:10;-1.6;58.9
78514;SHT31;67814;51.976;5.810;2024-01-11T09:37:39;-1.6;59.2
78514;SHT31;67814;51.976;5.810;2024-01-11T09:40:10;-1.6;59.1
78514;SHT31;67814;51.976;5.810;2024-01-11T09:42:39;-1.5;59.2
78514;SHT31;67814;51.976;5.810;2024-01-11T09:45:12;-1.5;59.1
78514;SHT31;67814;51.976;5.810;2024-01-11T09:47:43;-1.4;59.1
78514;SHT31;67814;51.976;5.810;2024-01-11T09:50:15;-1.4;59.4
78514;SHT31;67814;51.976;5.810;2024-01-11T09:52:47;-1.3;59.2
78514;SHT31;67814;51.976;5.810;2024-01-11T09:55:16;-1.2;59.4
78514;SHT31;67814;51.976;5.810;2024-01-11T09:57:46;-1.2;59.4
78514;SHT31;67814;51.976;5.810;2024-01-11T10:00:18;-1.1;59.4
78514;SHT31;67814;51.976;5.810;2024-01-11T10:02:48;-1.1;59.2
78514;SHT31;67814;51.976;5.810;2024-01-11T10:05:17;-1.0;59.2
78514;SHT31;67814;51.976;5.810;2024-01-11T10:07:48;-1.0;59.3
78514;SHT31;67814;51.976;5.810;2024-01-11T10:10:18;-0.9;59.5
78514;SHT31;67814;51.976;5.810;2024-01-11T10:12:47;-0.8;59.6
78514;SHT31;67814;51.976;5.810;2024-01-11T10:15:16;-0.8;59.8
78514;SHT31;67814;51.976;5.810;2024-01-11T10:17:45;-0.7;60.0
78514;SHT31;67814;51.976;5.810;2024-01-11T10:20:14;-0.6;60.3
78514;SHT31;67814;51.976;5.810;2024-01-11T10:22:43;-0.6;60.9
78514;SHT31;67814;51.976;5.810;2024-01-11T10:25:15;-0.5;61.4
78514;SHT31;67814;51.976;5.810;2024-01-11T10:27:45;-0.4;61.8
78514;SHT31;67814;51.976;5.810;2024-01-11T10:30:16;-0.4;61.5
78514;SHT31;67814;51.976;5.810;2024-01-11T10:32:47;-0.3;61.6
78514;SHT31;67814;51.976;5.810;2024-01-11T10:35:16;-0.2;62.0
78514;SHT31;67814;51.976;5.810;2024-01-11T10:37:45;-0.2;63.6
78514;SHT31;67814;51.976;5.810;2024-01-11T10:40:16;-0.1;65.6
78514;SHT31;67814;51.976;5.810;2024-01-11T10:42:51;-0.1;66.3
78514;SHT31;67814;51.976;5.810;2024-01-11T10:45:23;-0.1;67.1
78514;SHT31;67814;51.976;5.810;2024-01-11T10:47:54;-0.0;67.7
78514;SHT31;67814;51.976;5.810;2024-01-11T10:50:25;-0.0;68.2
78514;SHT31;67814;51.976;5.810;2024-01-11T10:53:07;0.0;68.7
78514;SHT31;67814;51.976;5.810;2024-01-11T10:55:39;0.1;69.0
78514;SHT31;67814;51.976;5.810;2024-01-11T10:58:09;0.1;69.4
78514;SHT31;67814;51.976;5.810;2024-01-11T11:00:39;0.2;69.9
78514;SHT31;67814;51.976;5.810;2024-01-11T11:03:11;0.3;70.3
78514;SHT31;67814;51.976;5.810;2024-01-11T11:05:41;0.3;70.6
78514;SHT31;67814;51.976;5.810;2024-01-11T11:08:12;0.4;70.8
78514;SHT31;67814;51.976;5.810;2024-01-11T11:10:46;0.4;71.0
78514;SHT31;67814;51.976;5.810;2024-01-11T11:13:17;0.4;71.3
78514;SHT31;67814;51.976;5.810;2024-01-11T11:15:47;0.5;71.7
78514;SHT31;67814;51.976;5.810;2024-01-11T11:18:17;0.6;71.7
78514;SHT31;67814;51.976;5.810;2024-01-11T11:20:47;0.7;71.5
78514;SHT31;67814;51.976;5.810;2024-01-11T11:23:18;0.9;71.4
78514;SHT31;67814;51.976;5.810;2024-01-11T11:25:48;1.0;71.1
78514;SHT31;67814;51.976;5.810;2024-01-11T11:28:18;1.1;70.8
78514;SHT31;67814;51.976;5.810;2024-01-11T11:30:49;1.2;70.6
78514;SHT31;67814;51.976;5.810;2024-01-11T11:33:19;1.3;70.5
78514;SHT31;67814;51.976;5.810;2024-01-11T11:35:52;1.4;70.4
78514;SHT31;67814;51.976;5.810;2024-01-11T11:38:23;1.5;70.3
78514;SHT31;67814;51.976;5.810;2024-01-11T11:40:53;1.6;70.2
78514;SHT31;67814;51.976;5.810;2024-01-11T11:43:24;1.6;70.2
78514;SHT31;67814;51.976;5.810;2024-01-11T11:45:54;1.7;70.2
78514;SHT31;67814;51.976;5.810;2024-01-11T11:48:49;1.7;70.2
78514;SHT31;67814;51.976;5.810;2024-01-11T11:51:23;1.8;70.0
78514;SHT31;67814;51.976;5.810;2024-01-11T11:53:52;1.9;69.8
78514;SHT31;67814;51.976;5.810;2024-01-11T11:56:22;1.9;69.7
78514;SHT31;67814;51.976;5.810;2024-01-11T11:58:52;2.0;69.5
78514;SHT31;67814;51.976;5.810;2024-01-11T12:01:21;2.0;69.5
78514;SHT31;67814;51.976;5.810;2024-01-11T12:03:50;2.1;69.4
78514;SHT31;67814;51.976;5.810;2024-01-11T12:06:20;2.2;69.2
78514;SHT31;67814;51.976;5.810;2024-01-11T12:08:52;2.2;69.0
78514;SHT31;67814;51.976;5.810;2024-01-11T12:11:22;2.3;68.8
78514;SHT31;67814;51.976;5.810;2024-01-11T12:13:50;2.3;68.8
78514;SHT31;67814;51.976;5.810;2024-01-11T12:16:20;2.4;68.7
78514;SHT31;67814;51.976;5.810;2024-01-11T12:18:52;2.5;68.5
78514;SHT31;67814;51.976;5.810;2024-01-11T12:21:22;2.5;68.3
78514;SHT31;67814;51.976;5.810;2024-01-11T12:23:51;2.6;68.3
78514;SHT31;67814;51.976;5.810;2024-01-11T12:26:19;2.7;68.4
78514;SHT31;67814;51.976;5.810;2024-01-11T12:28:48;2.7;68.1
78514;SHT31;67814;51.976;5.810;2024-01-11T12:31:17;2.8;67.6
78514;SHT31;67814;51.976;5.810;2024-01-11T12:33:47;2.9;67.4
78514;SHT31;67814;51.976;5.810;2024-01-11T12:36:18;3.0;67.3
78514;SHT31;67814;51.976;5.810;2024-01-11T12:38:50;3.1;67.0
78514;SHT31;67814;51.976;5.810;2024-01-11T12:41:19;3.2;66.8
78514;SHT31;67814;51.976;5.810;2024-01-11T12:43:48;3.2;66.8
78514;SHT31;67814;51.976;5.810;2024-01-11T12:46:17;3.3;66.4
78514;SHT31;67814;51.976;5.810;2024-01-11T12:48:46;3.4;66.3
78514;SHT31;67814;51.976;5.810;2024-01-11T12:51:15;3.4;66.1
78514;SHT31;67814;51.976;5.810;2024-01-11T12:53:46;3.5;66.0
78514;SHT31;67814;51.976;5.810;2024-01-11T12:56:15;3.5;65.8
78514;SHT31;67814;51.976;5.810;2024-01-11T12:58:44;3.6;65.7
78514;SHT31;67814;51.976;5.810;2024-01-11T13:01:14;3.6;65.7
78514;SHT31;67814;51.976;5.810;2024-01-11T13:03:46;3.6;65.8
78514;SHT31;67814;51.976;5.810;2024-01-11T13:06:15;3.7;65.6
78514;SHT31;67814;51.976;5.810;2024-01-11T13:08:45;3.7;65.5
78514;SHT31;67814;51.976;5.810;2024-01-11T13:11:14;3.7;65.7
78514;SHT31;67814;51.976;5.810;2024-01-11T13:13:43;3.7;65.6
78514;SHT31;67814;51.976;5.810;2024-01-11T13:16:13;3.8;65.6
78514;SHT31;67814;51.976;5.810;2024-01-11T13:18:42;3.8;65.8
78514;SHT31;67814;51.976;5.810;2024-01-11T13:21:11;3.8;65.7
78514;SHT31;67814;51.976;5.810;2024-01-11T13:23:40;3.9;65.5
78514;SHT31;67814;51.976;5.810;2024-01-11T13:26:09;4.0;65.2
78514;SHT31;67814;51.976;5.810;2024-01-11T13:28:39;4.0;65.1
78514;SHT31;67814;51.976;5.810;2024-01-11T13:31:07;4.1;64.8
78514;SHT31;67814;51.976;5.810;2024-01-11T13:33:38;4.1;64.6
78514;SHT31;67814;51.976;5.810;2024-01-11T13:36:08;4.2;64.6
78514;SHT31;67814;51.976;5.810;2024-01-11T13:38:37;4.2;64.6
78514;SHT31;67814;51.976;5.810;2024-01-11T13:41:06;4.3;64.4
78514;SHT31;67814;51.976;5.810;2024-01-11T13:43:35;4.3;64.3
78514;SHT31;67814;51.976;5.810;2024-01-11T13:46:04;4.3;64.2
78514;SHT31;67814;51.976;5.810;2024-01-11T13:48:33;4.4;64.2
78514;SHT31;67814;51.976;5.810;2024-01-11T13:51:01;4.4;64.1
78514;SHT31;67814;51.976;5.810;2024-01-11T13:53:31;4.4;63.6
78514;SHT31;67814;51.976;5.810;2024-01-11T13:56:01;4.4;63.5
78514;SHT31;67814;51.976;5.810;2024-01-11T13:58:30;4.5;63.3
78514;SHT31;67814;51.976;5.810;2024-01-11T14:00:59;4.5;63.5
78514;SHT31;67814;51.976;5.810;2024-01-11T14:03:27;4.5;63.5
78514;SHT31;67814;51.976;5.810;2024-01-11T14:05:56;4.5;63.5
78514;SHT31;67814;51.976;5.810;2024-01-11T14:08:26;4.5;63.6
78514;SHT31;67814;51.976;5.810;2024-01-11T14:10:55;4.5;63.3
78514;SHT31;67814;51.976;5.810;2024-01-11T14:13:23;4.5;63.4
78514;SHT31;67814;51.976;5.810;2024-01-11T14:15:52;4.5;63.4
78514;SHT31;67814;51.976;5.810;2024-01-11T14:18:22;4.5;63.4
78514;SHT31;67814;51.976;5.810;2024-01-11T14:20:50;4.5;63.4
78514;SHT31;67814;51.976;5.810;2024-01-11T14:23:19;4.5;63.2
78514;SHT31;67814;51.976;5.810;2024-01-11T14:25:48;4.5;63.2
78514;SHT31;67814;51.976;5.810;2024-01-11T14:28:16;4.5;63.3
78514;SHT31;67814;51.976;5.810;2024-01-11T14:30:45;4.6;63.3
78514;SHT31;67814;51.976;5.810;2024-01-11T14:33:13;4.6;63.2
78514;SHT31;67814;51.976;5.810;2024-01-11T14:35:42;4.6;63.3
78514;SHT31;67814;51.976;5.810;2024-01-11T14:38:11;4.6;63.2
78514;SHT31;67814;51.976;5.810;2024-01-11T14:40:40;4.6;63.2
78514;SHT31;67814;51.976;5.810;2024-01-11T14:43:09;4.6;63.2
78514;SHT31;67814;51.976;5.810;2024-01-11T14:45:38;4.6;63.1
78514;SHT31;67814;51.976;5.810;2024-01-11T14:48:07;4.6;63.1
78514;SHT31;67814;51.976;5.810;2024-01-11T14:50:35;4.6;63.2
78514;SHT31;67814;51.976;5.810;2024-01-11T14:53:04;4.6;63.2
78514;SHT31;67814;51.976;5.810;2024-01-11T14:55:32;4.6;63.4
78514;SHT31;67814;51.976;5.810;2024-01-11T14:58:03;4.6;63.5
78514;SHT31;67814;51.976;5.810;2024-01-11T15:00:32;4.6;63.5
78514;SHT31;67814;51.976;5.810;2024-01-11T15:03:01;4.6;63.6
78514;SHT31;67814;51.976;5.810;2024-01-11T15:05:30;4.6;63.6
78514;SHT31;67814;51.976;5.810;2024-01-11T15:07:59;4.6;63.6
78514;SHT31;67814;51.976;5.810;2024-01-11T15:10:28;4.6;63.7
78514;SHT31;67814;51.976;5.810;2024-01-11T15:12:59;4.6;63.8
78514;SHT31;67814;51.976;5.810;2024-01-11T15:15:27;4.6;64.1
78514;SHT31;67814;51.976;5.810;2024-01-11T15:17:56;4.6;64.4
78514;SHT31;67814;51.976;5.810;2024-01-11T15:20:25;4.6;64.2
78514;SHT31;67814;51.976;5.810;2024-01-11T15:22:53;4.6;64.2
78514;SHT31;67814;51.976;5.810;2024-01-11T15:25:22;4.6;64.3
78514;SHT31;67814;51.976;5.810;2024-01-11T15:27:53;4.6;64.4
78514;SHT31;67814;51.976;5.810;2024-01-11T15:30:22;4.6;64.6
78514;SHT31;67814;51.976;5.810;2024-01-11T15:32:51;4.6;64.8
78514;SHT31;67814;51.976;5.810;2024-01-11T15:35:20;4.6;64.8
78514;SHT31;67814;51.976;5.810;2024-01-11T15:37:48;4.6;64.9
78514;SHT31;67814;51.976;5.810;2024-01-11T15:40:17;4.6;64.7
78514;SHT31;67814;51.976;5.810;2024-01-11T15:42:47;4.6;64.9
78514;SHT31;67814;51.976;5.810;2024-01-11T15:45:15;4.6;64.8
78514;SHT31;67814;51.976;5.810;2024-01-11T15:47:44;4.6;65.1
78514;SHT31;67814;51.976;5.810;2024-01-11T15:50:12;4.6;65.2
78514;SHT31;67814;51.976;5.810;2024-01-11T15:52:41;4.6;65.4
78514;SHT31;67814;51.976;5.810;2024-01-11T15:55:10;4.6;65.5
78514;SHT31;67814;51.976;5.810;2024-01-11T15:57:39;4.6;65.7
78514;SHT31;67814;51.976;5.810;2024-01-11T16:00:08;4.5;65.5
78514;SHT31;67814;51.976;5.810;2024-01-11T16:02:38;4.5;65.9
78514;SHT31;67814;51.976;5.810;2024-01-11T16:05:08;4.5;66.1
78514;SHT31;67814;51.976;5.810;2024-01-11T16:07:38;4.5;66.0
78514;SHT31;67814;51.976;5.810;2024-01-11T16:10:07;4.5;66.3
78514;SHT31;67814;51.976;5.810;2024-01-11T16:12:36;4.5;66.2
78514;SHT31;67814;51.976;5.810;2024-01-11T16:15:06;4.5;66.4
78514;SHT31;67814;51.976;5.810;2024-01-11T16:17:35;4.4;66.5
78514;SHT31;67814;51.976;5.810;2024-01-11T16:20:04;4.4;66.6